createdAt,value
2023-03-16T00:02:14.295Z,100740.38
2023-03-16T00:04:42.911Z,100742.81
2023-03-16T00:07:12.768Z,100735.72
2023-03-16T00:09:41.797Z,100740.81
2023-03-16T00:12:16.427Z,100731.06
2023-03-16T00:14:45.169Z,100737.16
2023-03-16T00:17:19.426Z,100731.88
2023-03-16T00:19:48.566Z,100735.16
2023-03-16T00:22:16.765Z,100736.78
2023-03-16T00:24:45.089Z,100740.25
2023-03-16T00:27:15.432Z,100729.69
2023-03-16T00:29:47.814Z,100737.63
2023-03-16T00:32:17.396Z,100734.97
2023-03-16T00:34:45.485Z,100734.97
2023-03-16T00:37:15.937Z,100734.78
2023-03-16T00:39:44.630Z,100735.59
2023-03-16T00:42:15.939Z,100726.59
2023-03-16T00:44:44.087Z,100726.66
2023-03-16T00:47:14.632Z,100729.09
2023-03-16T00:49:44.237Z,100720.19
2023-03-16T00:52:15.165Z,100719.19
2023-03-16T00:54:44.675Z,100716.34
2023-03-16T00:57:18.783Z,100710.03
2023-03-16T00:59:47.645Z,100710.84
2023-03-16T01:02:17.010Z,100703.78
2023-03-16T01:04:44.853Z,100711.50
2023-03-16T01:07:15.787Z,100697.28
2023-03-16T01:09:44.122Z,100694.03
2023-03-16T01:12:16.414Z,100695.66
2023-03-16T01:14:45.742Z,100694.84
2023-03-16T01:17:14.920Z,100697.47
2023-03-16T01:19:43.667Z,100680.75
2023-03-16T01:22:12.356Z,100697.47
2023-03-16T01:24:41.783Z,100686.72
2023-03-16T01:27:10.357Z,100675.47
2023-03-16T01:29:40.090Z,100674.31
2023-03-16T01:32:07.726Z,100675.56
2023-03-16T01:34:36.301Z,100674.31
2023-03-16T01:37:04.132Z,100675.13
2023-03-16T01:39:31.933Z,100677.97
2023-03-16T01:42:00.315Z,100668.44
2023-03-16T01:44:30.901Z,100670.25
2023-03-16T01:47:00.315Z,100661.31
2023-03-16T01:49:32.694Z,100654.41
2023-03-16T01:52:04.118Z,100663.13
2023-03-16T01:54:36.923Z,100660.28
2023-03-16T01:57:08.403Z,100662.13
2023-03-16T01:59:40.400Z,100649.94
2023-03-16T02:02:11.521Z,100649.13
2023-03-16T02:04:54.837Z,100647.09
2023-03-16T02:07:26.055Z,100641.38
2023-03-16T02:09:58.924Z,100640.19
2023-03-16T02:12:27.576Z,100632.25
2023-03-16T02:14:55.435Z,100627.19
2023-03-16T02:17:27.912Z,100624.13
2023-03-16T02:20:08.849Z,100624.34
2023-03-16T02:22:38.256Z,100605.19
2023-03-16T02:25:06.960Z,100610.47
2023-03-16T02:27:42.973Z,100604.38
2023-03-16T02:30:15.428Z,100597.91
2023-03-16T02:32:44.247Z,100599.91
2023-03-16T02:35:13.148Z,100594.63
2023-03-16T02:37:41.796Z,100594.63
2023-03-16T02:40:23.626Z,100584.06
2023-03-16T02:42:56.566Z,100588.38
2023-03-16T02:45:29.415Z,100575.97
2023-03-16T02:47:59.585Z,100577.16
2023-03-16T02:50:27.598Z,100578.78
2023-03-16T02:52:55.948Z,100577.16
2023-03-16T02:55:23.894Z,100584.06
2023-03-16T02:57:52.216Z,100575.16
2023-03-16T03:00:22.498Z,100575.97
2023-03-16T03:02:52.472Z,100560.31
2023-03-16T03:05:20.348Z,100552.00
2023-03-16T03:07:48.617Z,100552.00
2023-03-16T03:10:16.776Z,100550.38
2023-03-16T03:12:49.674Z,100547.53
2023-03-16T03:15:18.913Z,100547.53
2023-03-16T03:17:46.741Z,100549.16
2023-03-16T03:20:17.726Z,100533.31
2023-03-16T03:22:47.038Z,100535.94
2023-03-16T03:25:16.170Z,100537.78
2023-03-16T03:27:45.215Z,100539.44
2023-03-16T03:30:15.693Z,100530.50
2023-03-16T03:32:44.141Z,100527.84
2023-03-16T03:35:13.305Z,100523.59
2023-03-16T03:37:44.148Z,100528.66
2023-03-16T03:40:14.797Z,100532.13
2023-03-16T03:42:43.204Z,100518.31
2023-03-16T03:45:13.112Z,100526.22
2023-03-16T03:47:42.351Z,100517.47
2023-03-16T03:50:11.618Z,100515.66
2023-03-16T03:52:39.314Z,100504.44
2023-03-16T03:55:09.914Z,100505.91
2023-03-16T03:57:37.976Z,100502.63
2023-03-16T04:00:11.502Z,100509.75
2023-03-16T04:02:39.536Z,100497.53
2023-03-16T04:05:07.955Z,100503.84
2023-03-16T04:07:35.629Z,100493.88
2023-03-16T04:10:03.453Z,100498.34
2023-03-16T04:12:32.508Z,100492.25
2023-03-16T04:15:00.646Z,100489.63
2023-03-16T04:17:28.316Z,100487.78
2023-03-16T04:19:55.969Z,100483.69
2023-03-16T04:22:24.206Z,100483.69
2023-03-16T04:24:52.246Z,100483.69
2023-03-16T04:27:19.941Z,100476.78
2023-03-16T04:29:49.477Z,100485.53
2023-03-16T04:32:17.125Z,100479.44
2023-03-16T04:34:44.876Z,100474.16
2023-03-16T04:37:13.649Z,100479.44
2023-03-16T04:39:42.106Z,100479.44
2023-03-16T04:42:09.932Z,100475.78
2023-03-16T04:44:44.520Z,100475.38
2023-03-16T04:47:14.577Z,100460.94
2023-03-16T04:49:42.371Z,100466.66
2023-03-16T04:52:11.639Z,100460.34
2023-03-16T04:54:39.317Z,100456.09
2023-03-16T04:57:08.422Z,100456.09
2023-03-16T04:59:36.584Z,100457.69
2023-03-16T05:02:04.260Z,100459.09
2023-03-16T05:04:34.456Z,100459.91
2023-03-16T05:07:02.921Z,100451.56
2023-03-16T05:09:30.609Z,100450.75
2023-03-16T05:11:58.303Z,100453.22
2023-03-16T05:14:26.471Z,100448.09
2023-03-16T05:16:54.124Z,100449.94
2023-03-16T05:19:21.825Z,100443.03
2023-03-16T05:21:50.871Z,100447.50
2023-03-16T05:24:18.520Z,100441.41
2023-03-16T05:26:46.176Z,100449.53
2023-03-16T05:29:14.475Z,100438.13
2023-03-16T05:31:42.132Z,100443.63
2023-03-16T05:34:09.823Z,100434.88
2023-03-16T05:36:37.998Z,100441.78
2023-03-16T05:39:08.388Z,100438.34
2023-03-16T05:41:36.401Z,100437.53
2023-03-16T05:44:05.555Z,100438.53
2023-03-16T05:46:33.349Z,100436.50
2023-03-16T05:49:01.257Z,100432.25
2023-03-16T05:51:29.676Z,100436.50
2023-03-16T05:53:57.558Z,100432.84
2023-03-16T05:56:27.790Z,100430.84
2023-03-16T05:58:57.232Z,100430.03
2023-03-16T06:01:25.229Z,100427.56
2023-03-16T06:03:53.346Z,100429.59
2023-03-16T06:06:22.882Z,100434.31
2023-03-16T06:08:50.711Z,100436.94
2023-03-16T06:11:18.752Z,100438.56
2023-03-16T06:13:48.366Z,100427.19
2023-03-16T06:16:16.920Z,100422.50
2023-03-16T06:18:44.798Z,100421.53
2023-03-16T06:21:13.000Z,100416.84
2023-03-16T06:23:40.799Z,100430.88
2023-03-16T06:26:08.505Z,100435.34
2023-03-16T06:28:36.792Z,100428.66
2023-03-16T06:31:06.127Z,100422.34
2023-03-16T06:33:33.817Z,100418.69
2023-03-16T06:36:02.263Z,100421.97
2023-03-16T06:38:29.945Z,100414.03
2023-03-16T06:40:57.653Z,100412.22
2023-03-16T06:43:25.868Z,100407.75
2023-03-16T06:45:53.597Z,100402.25
2023-03-16T06:48:22.664Z,100412.66
2023-03-16T06:50:50.956Z,100417.94
2023-03-16T06:53:18.605Z,100423.59
2023-03-16T06:55:46.271Z,100418.31
2023-03-16T06:58:14.516Z,100419.13
2023-03-16T07:00:42.784Z,100418.16
2023-03-16T07:03:10.500Z,100421.38
2023-03-16T07:05:39.984Z,100426.47
2023-03-16T07:08:07.890Z,100424.84
2023-03-16T07:10:35.557Z,100426.28
2023-03-16T07:13:04.644Z,100416.31
2023-03-16T07:15:32.279Z,100416.31
2023-03-16T07:17:59.912Z,100418.75
2023-03-16T07:20:31.757Z,100424.84
2023-03-16T07:23:00.826Z,100422.63
2023-03-16T07:25:28.552Z,100422.44
2023-03-16T07:27:56.784Z,100419.59
2023-03-16T07:30:25.417Z,100423.06
2023-03-16T07:32:53.268Z,100423.69
2023-03-16T07:35:22.165Z,100420.25
2023-03-16T07:37:50.476Z,100418.84
2023-03-16T07:40:19.819Z,100416.81
2023-03-16T07:42:47.980Z,100413.16
2023-03-16T07:45:17.801Z,100417.63
2023-03-16T07:47:45.504Z,100414.38
2023-03-16T07:50:16.260Z,100415.00
2023-03-16T07:52:44.184Z,100411.31
2023-03-16T07:55:11.978Z,100420.88
2023-03-16T07:57:42.573Z,100419.69
2023-03-16T08:00:14.117Z,100420.47
2023-03-16T08:02:42.048Z,100412.94
2023-03-16T08:05:11.706Z,100412.50
2023-03-16T08:07:39.233Z,100416.34
2023-03-16T08:10:07.497Z,100424.06
2023-03-16T08:12:35.620Z,100424.84
2023-03-16T08:15:05.856Z,100423.44
2023-03-16T08:17:34.173Z,100416.28
2023-03-16T08:20:02.471Z,100416.03
2023-03-16T08:22:30.858Z,100423.13
2023-03-16T08:24:58.544Z,100414.78
2023-03-16T08:27:29.757Z,100416.38
2023-03-16T08:29:57.542Z,100410.88
2023-03-16T08:32:26.599Z,100413.69
2023-03-16T08:34:55.482Z,100420.19
2023-03-16T08:37:24.132Z,100414.03
2023-03-16T08:39:53.066Z,100418.50
2023-03-16T08:42:21.673Z,100408.06
2023-03-16T08:44:49.355Z,100408.22
2023-03-16T08:47:17.064Z,100408.22
2023-03-16T08:49:46.676Z,100404.50
2023-03-16T08:52:14.159Z,100410.19
2023-03-16T08:54:59.837Z,100402.59
2023-03-16T08:57:29.716Z,100403.22
2023-03-16T08:59:57.398Z,100403.63
2023-03-16T09:02:25.563Z,100396.47
2023-03-16T09:04:55.069Z,100393.16
2023-03-16T09:07:22.740Z,100405.97
2023-03-16T09:09:51.038Z,100403.13
2023-03-16T09:12:21.073Z,100404.31
2023-03-16T09:14:48.984Z,100410.41
2023-03-16T09:17:16.630Z,100408.78
2023-03-16T09:19:54.392Z,100405.09
2023-03-16T09:22:24.446Z,100407.56
2023-03-16T09:24:52.639Z,100404.31
2023-03-16T09:27:22.437Z,100395.75
2023-03-16T09:29:50.617Z,100401.81
2023-03-16T09:32:18.785Z,100396.72
2023-03-16T09:34:46.534Z,100399.78
2023-03-16T09:37:14.556Z,100397.47
2023-03-16T09:39:43.990Z,100387.84
2023-03-16T09:42:19.183Z,100395.16
2023-03-16T09:44:57.666Z,100399.00
2023-03-16T09:47:30.230Z,100391.41
2023-03-16T09:50:01.721Z,100390.97
2023-03-16T09:52:39.430Z,100388.25
2023-03-16T09:55:17.711Z,100387.84
2023-03-16T09:57:47.361Z,100394.91
2023-03-16T10:00:17.328Z,100394.41
2023-03-16T10:03:12.659Z,100393.91
2023-03-16T10:05:40.899Z,100388.50
2023-03-16T10:08:15.979Z,100382.91
2023-03-16T10:10:58.056Z,100370.88
2023-03-16T10:13:33.623Z,100383.34
2023-03-16T10:16:06.179Z,100373.00
2023-03-16T10:18:40.962Z,100379.63
2023-03-16T10:21:14.111Z,100375.59
2023-03-16T10:23:43.368Z,100369.84
2023-03-16T10:26:15.928Z,100352.88
2023-03-16T10:28:45.823Z,100359.19
2023-03-16T10:31:14.662Z,100352.69
2023-03-16T10:33:42.331Z,100345.22
2023-03-16T10:36:27.476Z,100349.72
2023-03-16T10:38:59.639Z,100353.25
2023-03-16T10:41:32.346Z,100344.41
2023-03-16T10:44:07.151Z,100346.31
2023-03-16T10:46:39.870Z,100339.56
2023-03-16T10:49:22.088Z,100350.72
2023-03-16T10:51:50.405Z,100332.19
2023-03-16T10:54:29.402Z,100334.66
2023-03-16T10:56:58.805Z,100326.03
2023-03-16T10:59:33.196Z,100325.44
2023-03-16T11:02:03.758Z,100327.41
2023-03-16T11:04:34.354Z,100310.50
2023-03-16T11:07:02.032Z,100290.81
2023-03-16T11:09:34.340Z,100303.19
2023-03-16T11:12:15.367Z,100310.22
2023-03-16T11:14:45.718Z,100299.13
2023-03-16T11:17:17.854Z,100308.81
2023-03-16T11:19:53.125Z,100298.81
2023-03-16T11:22:23.381Z,100286.53
2023-03-16T11:24:55.621Z,100294.53
2023-03-16T11:27:27.777Z,100296.25
2023-03-16T11:30:06.039Z,100284.31
2023-03-16T11:32:37.412Z,100273.31
2023-03-16T11:35:13.893Z,100280.59
2023-03-16T11:37:54.660Z,100309.66
2023-03-16T11:40:35.389Z,100294.00
2023-03-16T11:43:15.824Z,100288.34
2023-03-16T11:45:50.252Z,100286.72
2023-03-16T11:48:28.820Z,100270.19
2023-03-16T11:51:05.191Z,100288.03
2023-03-16T11:53:50.647Z,100270.44
2023-03-16T11:56:27.968Z,100270.91
2023-03-16T11:59:46.297Z,100270.72
2023-03-16T12:02:34.348Z,100278.00
2023-03-16T12:05:24.155Z,100254.56
2023-03-16T12:08:04.548Z,100252.81
2023-03-16T12:10:38.497Z,100259.28
2023-03-16T12:13:35.108Z,100242.31
2023-03-16T12:16:10.880Z,100243.97
2023-03-16T12:18:46.953Z,100239.59
2023-03-16T12:21:18.398Z,100241.47
2023-03-16T12:23:53.547Z,100233.56
2023-03-16T12:26:24.077Z,100234.19
2023-03-16T12:28:55.576Z,100224.19
2023-03-16T12:31:34.568Z,100224.59
2023-03-16T12:34:09.610Z,100219.59
2023-03-16T12:36:52.106Z,100212.75
2023-03-16T12:39:30.371Z,100194.69
2023-03-16T12:42:11.820Z,100196.63
2023-03-16T12:44:46.941Z,100179.88
2023-03-16T12:47:27.169Z,100181.03
2023-03-16T12:49:56.747Z,100178.66
2023-03-16T12:52:24.219Z,100168.34
2023-03-16T12:54:53.233Z,100161.47
2023-03-16T12:57:25.648Z,100158.88
2023-03-16T12:59:59.309Z,100152.53
2023-03-16T13:02:32.929Z,100140.00
2023-03-16T13:05:02.735Z,100130.97
2023-03-16T13:07:33.045Z,100133.38
2023-03-16T13:10:08.708Z,100134.72
2023-03-16T13:12:38.569Z,100137.38
2023-03-16T13:15:27.445Z,100132.63
2023-03-16T13:18:21.281Z,100146.78
2023-03-16T13:20:56.930Z,100129.38
2023-03-16T13:23:27.533Z,100133.44
2023-03-16T13:26:06.010Z,100135.03
2023-03-16T13:28:37.933Z,100129.94
2023-03-16T13:31:07.417Z,100127.28
2023-03-16T13:33:40.777Z,100126.75
2023-03-16T13:36:09.059Z,100116.09
2023-03-16T13:38:37.502Z,100117.47
2023-03-16T13:41:10.560Z,100112.66
2023-03-16T13:43:43.826Z,100103.59
2023-03-16T13:46:18.088Z,100102.31
2023-03-16T13:48:48.343Z,100110.06
2023-03-16T13:51:19.121Z,100112.22
2023-03-16T13:53:46.880Z,100101.81
2023-03-16T13:56:16.747Z,100085.78
2023-03-16T13:58:48.608Z,100098.41
2023-03-16T14:01:26.001Z,100080.44
2023-03-16T14:03:57.450Z,100082.66
2023-03-16T14:06:28.726Z,100075.69
2023-03-16T14:09:01.391Z,100066.16
2023-03-16T14:11:29.514Z,100056.59
2023-03-16T14:13:58.873Z,100055.25
2023-03-16T14:16:29.895Z,100058.75
2023-03-16T14:19:03.243Z,100047.00
2023-03-16T14:21:34.451Z,100064.09
2023-03-16T14:24:05.435Z,100051.28
2023-03-16T14:26:41.845Z,100062.75
2023-03-16T14:29:19.420Z,100061.41
2023-03-16T14:31:47.293Z,100055.78
2023-03-16T14:34:28.805Z,100058.19
2023-03-16T14:37:08.595Z,100050.94
2023-03-16T14:39:36.535Z,100057.63
2023-03-16T14:42:06.903Z,100054.16
2023-03-16T14:44:37.115Z,100042.16
2023-03-16T14:47:07.123Z,100053.66
2023-03-16T14:49:38.554Z,100052.34
2023-03-16T14:52:09.301Z,100048.63
2023-03-16T14:54:37.307Z,100033.63
2023-03-16T14:57:06.664Z,100035.00
2023-03-16T14:59:34.665Z,100025.94
2023-03-16T15:02:06.258Z,100019.28
2023-03-16T15:04:37.418Z,100015.28
2023-03-16T15:07:22.638Z,100024.41
2023-03-16T15:09:52.127Z,100007.56
2023-03-16T15:12:21.157Z,99995.81
2023-03-16T15:15:06.967Z,100008.38
2023-03-16T15:17:34.689Z,100005.44
2023-03-16T15:20:05.211Z,99996.88
2023-03-16T15:22:34.937Z,99995.28
2023-03-16T15:25:04.610Z,100005.66
2023-03-16T15:27:35.884Z,100004.34
2023-03-16T15:30:03.619Z,100001.13
2023-03-16T15:32:31.392Z,99987.22
2023-03-16T15:34:59.409Z,99997.63
2023-03-16T15:37:30.135Z,99989.59
2023-03-16T15:39:57.803Z,99994.41
2023-03-16T15:42:27.596Z,99998.69
2023-03-16T15:44:55.291Z,99992.53
2023-03-16T15:47:23.189Z,99995.22
2023-03-16T15:49:51.150Z,99987.19
2023-03-16T15:52:27.779Z,99982.38
2023-03-16T15:54:57.745Z,99980.78
2023-03-16T15:57:25.541Z,99973.84
2023-03-16T15:59:53.710Z,99970.59
2023-03-16T16:02:28.666Z,99965.25
2023-03-16T16:04:56.957Z,99957.78
2023-03-16T16:07:24.724Z,99962.31
2023-03-16T16:09:53.058Z,99961.47
2023-03-16T16:12:26.798Z,99960.44
2023-03-16T16:14:56.457Z,99958.81
2023-03-16T16:17:41.208Z,99962.34
2023-03-16T16:20:21.658Z,99944.66
2023-03-16T16:22:50.267Z,99959.13
2023-03-16T16:25:18.005Z,99950.56
2023-03-16T16:27:48.065Z,99955.09
2023-03-16T16:30:20.999Z,99950.78
2023-03-16T16:32:49.061Z,99951.31
2023-03-16T16:35:19.736Z,99950.25
2023-03-16T16:37:47.779Z,99948.66
2023-03-16T16:40:18.307Z,99946.22
2023-03-16T16:42:48.880Z,99940.88
2023-03-16T16:45:19.269Z,99949.66
2023-03-16T16:47:47.840Z,99943.50
2023-03-16T16:50:17.571Z,99937.34
2023-03-16T16:52:45.463Z,99934.94
2023-03-16T16:55:13.488Z,99932.53
2023-03-16T16:57:41.854Z,99931.97
2023-03-16T17:00:19.701Z,99929.28
2023-03-16T17:02:50.816Z,99936.22
2023-03-16T17:05:22.273Z,99934.84
2023-03-16T17:07:50.973Z,99939.66
2023-03-16T17:10:22.741Z,99930.84
2023-03-16T17:12:51.692Z,99932.41
2023-03-16T17:15:28.310Z,99931.34
2023-03-16T17:18:03.058Z,99928.38
2023-03-16T17:20:31.699Z,99924.34
2023-03-16T17:23:00.162Z,99930.75
2023-03-16T17:25:30.140Z,99925.91
2023-03-16T17:27:59.092Z,99921.63
2023-03-16T17:30:30.159Z,99926.41
2023-03-16T17:33:03.850Z,99926.94
2023-03-16T17:35:31.976Z,99929.03
2023-03-16T17:38:00.084Z,99932.47
2023-03-16T17:40:28.850Z,99935.38
2023-03-16T17:42:56.886Z,99930.00
2023-03-16T17:45:27.774Z,99935.84
2023-03-16T17:47:57.538Z,99925.41
2023-03-16T17:50:26.726Z,99919.81
2023-03-16T17:52:54.730Z,99910.13
2023-03-16T17:55:25.281Z,99912.84
2023-03-16T17:57:54.655Z,99912.78
2023-03-16T18:00:27.206Z,99918.88
2023-03-16T18:02:58.627Z,99927.41
2023-03-16T18:05:29.128Z,99918.03
2023-03-16T18:08:01.014Z,99926.53
2023-03-16T18:10:31.577Z,99919.28
2023-03-16T18:13:03.324Z,99929.16
2023-03-16T18:15:33.733Z,99918.16
2023-03-16T18:18:05.133Z,99918.66
2023-03-16T18:20:36.895Z,99924.50
2023-03-16T18:23:16.994Z,99914.66
2023-03-16T18:25:45.773Z,99916.19
2023-03-16T18:28:14.870Z,99913.78
2023-03-16T18:30:44.525Z,99907.06
2023-03-16T18:33:22.208Z,99906.59
2023-03-16T18:35:51.076Z,99903.31
2023-03-16T18:38:24.547Z,99888.53
2023-03-16T18:40:52.206Z,99897.38
2023-03-16T18:43:19.868Z,99901.34
2023-03-16T18:45:48.825Z,99894.09
2023-03-16T18:48:30.645Z,99882.88
2023-03-16T18:50:59.028Z,99884.69
2023-03-16T18:53:28.133Z,99872.91
2023-03-16T18:55:57.539Z,99876.91
2023-03-16T18:58:25.518Z,99880.66
2023-03-16T19:00:56.422Z,99869.69
2023-03-16T19:03:27.880Z,99872.84
2023-03-16T19:05:57.563Z,99866.66
2023-03-16T19:08:25.641Z,99862.94
2023-03-16T19:10:56.936Z,99856.25
2023-03-16T19:13:26.359Z,99860.22
2023-03-16T19:15:55.950Z,99853.75
2023-03-16T19:18:26.632Z,99847.41
2023-03-16T19:20:56.503Z,99846.81
2023-03-16T19:23:27.686Z,99843.63
2023-03-16T19:25:55.962Z,99841.69
2023-03-16T19:28:28.375Z,99828.38
2023-03-16T19:30:56.934Z,99838.72
2023-03-16T19:33:28.242Z,99839.78
2023-03-16T19:35:57.155Z,99845.34
2023-03-16T19:38:26.256Z,99841.06
2023-03-16T19:40:57.063Z,99854.38
2023-03-16T19:43:26.316Z,99858.91
2023-03-16T19:45:54.931Z,99846.66
2023-03-16T19:48:34.374Z,99845.59
2023-03-16T19:51:02.135Z,99834.13
2023-03-16T19:53:29.805Z,99830.13
2023-03-16T19:55:57.889Z,99816.78
2023-03-16T19:58:32.055Z,99826.88
2023-03-16T20:01:01.571Z,99822.59
2023-03-16T20:03:29.784Z,99827.94
2023-03-16T20:05:58.805Z,99816.72
2023-03-16T20:08:29.122Z,99811.94
2023-03-16T20:11:02.078Z,99817.53
2023-03-16T20:13:31.779Z,99811.41
2023-03-16T20:15:59.439Z,99816.47
2023-03-16T20:18:28.694Z,99808.16
2023-03-16T20:20:58.269Z,99798.50
2023-03-16T20:23:27.991Z,99815.63
2023-03-16T20:25:56.360Z,99810.84
2023-03-16T20:28:27.288Z,99820.47
2023-03-16T20:30:55.103Z,99808.69
2023-03-16T20:33:25.146Z,99809.97
2023-03-16T20:35:54.914Z,99810.22
2023-03-16T20:38:24.343Z,99803.84
2023-03-16T20:41:06.309Z,99806.97
2023-03-16T20:43:34.138Z,99806.97
2023-03-16T20:46:04.311Z,99807.81
2023-03-16T20:48:32.601Z,99801.91
2023-03-16T20:51:01.466Z,99813.38
2023-03-16T20:53:31.067Z,99801.66
2023-03-16T20:56:01.619Z,99795.78
2023-03-16T20:58:32.877Z,99805.97
2023-03-16T21:01:01.989Z,99816.28
2023-03-16T21:03:33.845Z,99811.50
2023-03-16T21:06:01.486Z,99806.97
2023-03-16T21:08:30.802Z,99799.25
2023-03-16T21:11:00.331Z,99793.66
2023-03-16T21:13:33.242Z,99773.19
2023-03-16T21:16:03.876Z,99765.44
2023-03-16T21:18:33.031Z,99761.72
2023-03-16T21:21:00.846Z,99763.34
2023-03-16T21:23:29.892Z,99759.88
2023-03-16T21:26:00.530Z,99751.91
2023-03-16T21:28:30.431Z,99751.06
2023-03-16T21:30:59.177Z,99760.13
2023-03-16T21:33:31.314Z,99767.88
2023-03-16T21:35:59.873Z,99771.34
2023-03-16T21:38:31.186Z,99771.34
2023-03-16T21:40:59.279Z,99782.00
2023-03-16T21:43:27.863Z,99780.13
2023-03-16T21:45:57.169Z,99780.34
2023-03-16T21:48:26.871Z,99779.56
2023-03-16T21:50:54.905Z,99783.91
2023-03-16T21:53:24.731Z,99777.75
2023-03-16T21:55:55.116Z,99784.94
2023-03-16T21:58:23.546Z,99781.72
2023-03-16T22:00:53.933Z,99788.91
2023-03-16T22:03:25.968Z,99783.34
2023-03-16T22:05:55.001Z,99779.31
2023-03-16T22:08:24.777Z,99774.81
2023-03-16T22:10:54.826Z,99762.72
2023-03-16T22:13:23.867Z,99764.38
2023-03-16T22:15:52.821Z,99764.97
2023-03-16T22:18:29.261Z,99756.97
2023-03-16T22:20:58.887Z,99757.22
2023-03-16T22:23:36.801Z,99756.22
2023-03-16T22:26:09.545Z,99751.97
2023-03-16T22:28:38.207Z,99757.50
2023-03-16T22:31:06.570Z,99769.22
2023-03-16T22:33:39.034Z,99771.88
2023-03-16T22:36:11.732Z,99770.28
2023-03-16T22:38:40.936Z,99768.69
2023-03-16T22:41:14.782Z,99766.56
2023-03-16T22:43:44.834Z,99765.75
2023-03-16T22:46:19.280Z,99758.56
2023-03-16T22:48:50.051Z,99763.91
2023-03-16T22:51:24.973Z,99778.28
2023-03-16T22:53:56.347Z,99770.53
2023-03-16T22:56:26.252Z,99765.22
2023-03-16T22:58:58.652Z,99768.69
2023-03-16T23:01:31.183Z,99769.69
2023-03-16T23:03:59.419Z,99757.72
2023-03-16T23:06:29.963Z,99751.56
2023-03-16T23:08:58.131Z,99748.13
2023-03-16T23:11:32.813Z,99759.81
2023-03-16T23:14:00.701Z,99766.44
2023-03-16T23:16:31.186Z,99763.78
2023-03-16T23:18:59.626Z,99750.41
2023-03-16T23:21:29.387Z,99749.91
2023-03-16T23:24:03.989Z,99750.13
2023-03-16T23:26:34.287Z,99742.16
2023-03-16T23:29:02.005Z,99742.41
2023-03-16T23:31:30.936Z,99732.56
2023-03-16T23:33:59.704Z,99737.63
2023-03-16T23:36:27.511Z,99724.31
2023-03-16T23:38:55.220Z,99728.03
2023-03-16T23:41:24.830Z,99722.72
2023-03-16T23:43:54.052Z,99723.03
2023-03-16T23:46:25.714Z,99719.56
2023-03-16T23:48:55.602Z,99735.22
2023-03-16T23:51:27.619Z,99740.81
2023-03-16T23:53:55.689Z,99751.13
2023-03-16T23:56:23.502Z,99753.53
2023-03-16T23:58:53.738Z,99748.47
